sensor_id;sensor_type;location;lat;lon;timestamp;P1;durP1;ratioP1;P2;durP2;ratioP2
5587;SDS011;2816;49.778;9.986;2023-02-26T00:02:28;22.17;;;5.17;;
5587;SDS011;2816;49.778;9.986;2023-02-26T00:04:55;28.33;;;6.23;;
5587;SDS011;2816;49.778;9.986;2023-02-26T00:07:22;45.73;;;8.00;;
5587;SDS011;2816;49.778;9.986;2023-02-26T00:09:54;8.30;;;2.70;;
5587;SDS011;2816;49.778;9.986;2023-02-26T00:12:21;6.30;;;2.57;;
5587;SDS011;2816;49.778;9.986;2023-02-26T00:14:49;5.53;;;2.57;;
5587;SDS011;2816;49.778;9.986;2023-02-26T00:17:24;3.93;;;2.03;;
5587;SDS011;2816;49.778;9.986;2023-02-26T00:20:02;5.27;;;2.03;;
5587;SDS011;2816;49.778;9.986;2023-02-26T00:22:30;2.53;;;1.73;;
5587;SDS011;2816;49.778;9.986;2023-02-26T00:24:58;6.33;;;1.63;;
5587;SDS011;2816;49.778;9.986;2023-02-26T00:27:25;4.20;;;1.30;;
5587;SDS011;2816;49.778;9.986;2023-02-26T00:29:52;3.40;;;1.40;;
5587;SDS011;2816;49.778;9.986;2023-02-26T00:32:20;3.27;;;1.50;;
5587;SDS011;2816;49.778;9.986;2023-02-26T00:34:47;7.10;;;1.90;;
5587;SDS011;2816;49.778;9.986;2023-02-26T00:37:17;6.00;;;2.17;;
5587;SDS011;2816;49.778;9.986;2023-02-26T00:39:55;5.87;;;1.73;;
5587;SDS011;2816;49.778;9.986;2023-02-26T00:42:33;4.97;;;2.07;;
5587;SDS011;2816;49.778;9.986;2023-02-26T00:45:00;5.83;;;1.77;;
5587;SDS011;2816;49.778;9.986;2023-02-26T00:47:28;2.80;;;1.60;;
5587;SDS011;2816;49.778;9.986;2023-02-26T00:50:12;5.30;;;1.90;;
5587;SDS011;2816;49.778;9.986;2023-02-26T00:52:45;4.70;;;1.70;;
5587;SDS011;2816;49.778;9.986;2023-02-26T00:55:19;2.10;;;1.30;;
5587;SDS011;2816;49.778;9.986;2023-02-26T00:57:46;3.33;;;1.70;;
5587;SDS011;2816;49.778;9.986;2023-02-26T01:00:14;6.03;;;1.53;;
5587;SDS011;2816;49.778;9.986;2023-02-26T01:02:42;5.47;;;1.53;;
5587;SDS011;2816;49.778;9.986;2023-02-26T01:05:10;3.20;;;1.60;;
5587;SDS011;2816;49.778;9.986;2023-02-26T01:07:39;4.27;;;1.30;;
5587;SDS011;2816;49.778;9.986;2023-02-26T01:10:10;2.13;;;1.30;;
5587;SDS011;2816;49.778;9.986;2023-02-26T01:12:40;2.57;;;1.30;;
5587;SDS011;2816;49.778;9.986;2023-02-26T01:15:08;1.53;;;1.40;;
5587;SDS011;2816;49.778;9.986;2023-02-26T01:17:38;8.13;;;1.60;;
5587;SDS011;2816;49.778;9.986;2023-02-26T01:20:12;3.70;;;1.57;;
5587;SDS011;2816;49.778;9.986;2023-02-26T01:22:43;3.70;;;1.43;;
5587;SDS011;2816;49.778;9.986;2023-02-26T01:25:19;3.43;;;1.57;;
5587;SDS011;2816;49.778;9.986;2023-02-26T01:27:51;14.40;;;1.63;;
5587;SDS011;2816;49.778;9.986;2023-02-26T01:30:21;6.23;;;1.60;;
5587;SDS011;2816;49.778;9.986;2023-02-26T01:32:50;4.17;;;1.70;;
5587;SDS011;2816;49.778;9.986;2023-02-26T01:38:19;4.07;;;1.67;;
5587;SDS011;2816;49.778;9.986;2023-02-26T01:41:02;4.23;;;1.40;;
5587;SDS011;2816;49.778;9.986;2023-02-26T01:43:48;1.80;;;1.40;;
5587;SDS011;2816;49.778;9.986;2023-02-26T01:46:25;3.00;;;1.50;;
5587;SDS011;2816;49.778;9.986;2023-02-26T01:48:57;2.47;;;1.57;;
5587;SDS011;2816;49.778;9.986;2023-02-26T01:51:44;3.73;;;1.30;;
5587;SDS011;2816;49.778;9.986;2023-02-26T01:54:15;2.83;;;1.47;;
5587;SDS011;2816;49.778;9.986;2023-02-26T01:56:43;2.23;;;1.57;;
5587;SDS011;2816;49.778;9.986;2023-02-26T01:59:17;1.87;;;1.47;;
5587;SDS011;2816;49.778;9.986;2023-02-26T02:01:48;2.00;;;1.20;;
5587;SDS011;2816;49.778;9.986;2023-02-26T02:04:17;2.90;;;1.50;;
5587;SDS011;2816;49.778;9.986;2023-02-26T02:06:45;3.60;;;1.37;;
5587;SDS011;2816;49.778;9.986;2023-02-26T02:09:13;2.10;;;1.50;;
5587;SDS011;2816;49.778;9.986;2023-02-26T02:11:44;2.97;;;1.37;;
5587;SDS011;2816;49.778;9.986;2023-02-26T02:14:22;2.17;;;1.27;;
5587;SDS011;2816;49.778;9.986;2023-02-26T02:16:57;2.70;;;1.50;;
5587;SDS011;2816;49.778;9.986;2023-02-26T02:19:33;5.27;;;1.43;;
5587;SDS011;2816;49.778;9.986;2023-02-26T02:22:31;3.27;;;1.20;;
5587;SDS011;2816;49.778;9.986;2023-02-26T02:25:13;3.80;;;1.67;;
5587;SDS011;2816;49.778;9.986;2023-02-26T02:28:03;2.80;;;1.23;;
5587;SDS011;2816;49.778;9.986;2023-02-26T02:30:47;1.90;;;1.47;;
5587;SDS011;2816;49.778;9.986;2023-02-26T02:33:21;2.83;;;1.63;;
5587;SDS011;2816;49.778;9.986;2023-02-26T02:35:54;2.43;;;1.50;;
5587;SDS011;2816;49.778;9.986;2023-02-26T02:38:27;4.50;;;1.90;;
5587;SDS011;2816;49.778;9.986;2023-02-26T02:41:01;2.77;;;1.73;;
5587;SDS011;2816;49.778;9.986;2023-02-26T02:43:32;5.30;;;1.70;;
5587;SDS011;2816;49.778;9.986;2023-02-26T02:46:03;1.87;;;1.60;;
5587;SDS011;2816;49.778;9.986;2023-02-26T02:48:33;3.83;;;1.90;;
5587;SDS011;2816;49.778;9.986;2023-02-26T02:51:05;4.40;;;1.70;;
5587;SDS011;2816;49.778;9.986;2023-02-26T02:53:36;3.23;;;1.70;;
5587;SDS011;2816;49.778;9.986;2023-02-26T02:56:08;7.10;;;2.00;;
5587;SDS011;2816;49.778;9.986;2023-02-26T02:58:40;2.20;;;2.00;;
5587;SDS011;2816;49.778;9.986;2023-02-26T03:01:14;1.93;;;1.50;;
5587;SDS011;2816;49.778;9.986;2023-02-26T03:03:47;3.70;;;2.10;;
5587;SDS011;2816;49.778;9.986;2023-02-26T03:06:20;5.23;;;2.20;;
5587;SDS011;2816;49.778;9.986;2023-02-26T03:08:47;3.23;;;1.60;;
5587;SDS011;2816;49.778;9.986;2023-02-26T03:11:15;4.03;;;2.00;;
5587;SDS011;2816;49.778;9.986;2023-02-26T03:13:42;7.23;;;2.50;;
5587;SDS011;2816;49.778;9.986;2023-02-26T03:16:19;5.87;;;2.23;;
5587;SDS011;2816;49.778;9.986;2023-02-26T03:19:03;6.23;;;2.10;;
5587;SDS011;2816;49.778;9.986;2023-02-26T03:21:37;2.90;;;1.87;;
5587;SDS011;2816;49.778;9.986;2023-02-26T03:24:11;3.47;;;1.67;;
5587;SDS011;2816;49.778;9.986;2023-02-26T03:26:41;2.77;;;1.80;;
5587;SDS011;2816;49.778;9.986;2023-02-26T03:29:15;3.40;;;1.70;;
5587;SDS011;2816;49.778;9.986;2023-02-26T03:31:49;3.40;;;1.47;;
5587;SDS011;2816;49.778;9.986;2023-02-26T03:34:21;8.73;;;2.17;;
5587;SDS011;2816;49.778;9.986;2023-02-26T03:36:53;2.53;;;1.77;;
5587;SDS011;2816;49.778;9.986;2023-02-26T03:39:25;6.70;;;1.93;;
5587;SDS011;2816;49.778;9.986;2023-02-26T03:41:57;7.37;;;2.17;;
5587;SDS011;2816;49.778;9.986;2023-02-26T03:44:28;5.10;;;1.53;;
5587;SDS011;2816;49.778;9.986;2023-02-26T03:47:02;2.10;;;1.80;;
5587;SDS011;2816;49.778;9.986;2023-02-26T03:49:34;4.40;;;1.60;;
5587;SDS011;2816;49.778;9.986;2023-02-26T03:52:04;3.10;;;1.50;;
5587;SDS011;2816;49.778;9.986;2023-02-26T03:54:33;2.90;;;1.47;;
5587;SDS011;2816;49.778;9.986;2023-02-26T03:57:03;3.83;;;1.90;;
5587;SDS011;2816;49.778;9.986;2023-02-26T03:59:30;4.20;;;1.50;;
5587;SDS011;2816;49.778;9.986;2023-02-26T04:02:01;2.60;;;1.50;;
5587;SDS011;2816;49.778;9.986;2023-02-26T04:04:32;3.33;;;1.67;;
5587;SDS011;2816;49.778;9.986;2023-02-26T04:07:06;2.70;;;1.60;;
5587;SDS011;2816;49.778;9.986;2023-02-26T04:09:34;2.03;;;1.60;;
5587;SDS011;2816;49.778;9.986;2023-02-26T04:12:01;4.10;;;1.70;;
5587;SDS011;2816;49.778;9.986;2023-02-26T04:14:28;3.73;;;1.30;;
5587;SDS011;2816;49.778;9.986;2023-02-26T04:16:55;3.43;;;1.43;;
5587;SDS011;2816;49.778;9.986;2023-02-26T04:19:24;4.73;;;1.50;;
5587;SDS011;2816;49.778;9.986;2023-02-26T04:21:51;2.63;;;1.53;;
5587;SDS011;2816;49.778;9.986;2023-02-26T04:24:17;3.87;;;1.30;;
5587;SDS011;2816;49.778;9.986;2023-02-26T04:26:45;2.03;;;1.70;;
5587;SDS011;2816;49.778;9.986;2023-02-26T04:29:11;5.07;;;2.07;;
5587;SDS011;2816;49.778;9.986;2023-02-26T04:31:38;5.70;;;1.93;;
5587;SDS011;2816;49.778;9.986;2023-02-26T04:34:05;3.07;;;1.90;;
5587;SDS011;2816;49.778;9.986;2023-02-26T04:36:34;3.93;;;1.50;;
5587;SDS011;2816;49.778;9.986;2023-02-26T04:39:00;3.80;;;1.40;;
5587;SDS011;2816;49.778;9.986;2023-02-26T04:41:28;2.03;;;1.50;;
5587;SDS011;2816;49.778;9.986;2023-02-26T04:43:54;1.80;;;1.57;;
5587;SDS011;2816;49.778;9.986;2023-02-26T04:46:22;7.30;;;1.40;;
5587;SDS011;2816;49.778;9.986;2023-02-26T04:48:49;3.03;;;1.40;;
5587;SDS011;2816;49.778;9.986;2023-02-26T04:51:16;1.17;;;1.00;;
5587;SDS011;2816;49.778;9.986;2023-02-26T04:53:44;1.33;;;1.00;;
5587;SDS011;2816;49.778;9.986;2023-02-26T04:56:11;1.83;;;1.30;;
5587;SDS011;2816;49.778;9.986;2023-02-26T04:58:38;3.87;;;1.60;;
5587;SDS011;2816;49.778;9.986;2023-02-26T05:01:05;5.70;;;1.67;;
5587;SDS011;2816;49.778;9.986;2023-02-26T05:03:32;7.03;;;1.50;;
5587;SDS011;2816;49.778;9.986;2023-02-26T05:05:59;1.93;;;1.50;;
5587;SDS011;2816;49.778;9.986;2023-02-26T05:08:26;2.27;;;1.60;;
5587;SDS011;2816;49.778;9.986;2023-02-26T05:10:54;2.47;;;1.27;;
5587;SDS011;2816;49.778;9.986;2023-02-26T05:13:21;2.20;;;1.20;;
5587;SDS011;2816;49.778;9.986;2023-02-26T05:15:49;5.83;;;1.40;;
5587;SDS011;2816;49.778;9.986;2023-02-26T05:18:18;1.70;;;1.40;;
5587;SDS011;2816;49.778;9.986;2023-02-26T05:20:45;2.80;;;1.30;;
5587;SDS011;2816;49.778;9.986;2023-02-26T05:23:17;1.80;;;1.10;;
5587;SDS011;2816;49.778;9.986;2023-02-26T05:25:44;5.80;;;1.70;;
5587;SDS011;2816;49.778;9.986;2023-02-26T05:28:12;5.53;;;1.73;;
5587;SDS011;2816;49.778;9.986;2023-02-26T05:30:40;8.10;;;1.80;;
5587;SDS011;2816;49.778;9.986;2023-02-26T05:33:07;4.90;;;2.10;;
5587;SDS011;2816;49.778;9.986;2023-02-26T05:35:34;3.07;;;1.40;;
5587;SDS011;2816;49.778;9.986;2023-02-26T05:38:01;1.40;;;1.30;;
5587;SDS011;2816;49.778;9.986;2023-02-26T05:40:28;8.57;;;1.67;;
5587;SDS011;2816;49.778;9.986;2023-02-26T05:42:55;3.77;;;2.00;;
5587;SDS011;2816;49.778;9.986;2023-02-26T05:45:23;2.73;;;1.37;;
5587;SDS011;2816;49.778;9.986;2023-02-26T05:47:50;3.03;;;1.80;;
5587;SDS011;2816;49.778;9.986;2023-02-26T05:50:17;4.90;;;1.63;;
5587;SDS011;2816;49.778;9.986;2023-02-26T05:52:44;7.10;;;2.03;;
5587;SDS011;2816;49.778;9.986;2023-02-26T05:55:11;8.13;;;2.07;;
5587;SDS011;2816;49.778;9.986;2023-02-26T05:57:38;15.57;;;2.60;;
5587;SDS011;2816;49.778;9.986;2023-02-26T06:00:05;6.90;;;3.23;;
5587;SDS011;2816;49.778;9.986;2023-02-26T06:02:35;2.40;;;1.63;;
5587;SDS011;2816;49.778;9.986;2023-02-26T06:05:02;3.37;;;1.27;;
5587;SDS011;2816;49.778;9.986;2023-02-26T06:07:29;6.37;;;2.80;;
5587;SDS011;2816;49.778;9.986;2023-02-26T06:09:56;11.17;;;2.20;;
5587;SDS011;2816;49.778;9.986;2023-02-26T06:12:23;2.90;;;1.50;;
5587;SDS011;2816;49.778;9.986;2023-02-26T06:14:50;5.67;;;2.00;;
5587;SDS011;2816;49.778;9.986;2023-02-26T06:17:17;11.60;;;2.77;;
5587;SDS011;2816;49.778;9.986;2023-02-26T06:19:45;15.23;;;3.00;;
5587;SDS011;2816;49.778;9.986;2023-02-26T06:22:12;4.03;;;2.10;;
5587;SDS011;2816;49.778;9.986;2023-02-26T06:24:39;4.63;;;2.23;;
5587;SDS011;2816;49.778;9.986;2023-02-26T06:27:06;10.50;;;2.67;;
5587;SDS011;2816;49.778;9.986;2023-02-26T06:29:33;4.50;;;2.20;;
5587;SDS011;2816;49.778;9.986;2023-02-26T06:32:01;5.00;;;2.53;;
5587;SDS011;2816;49.778;9.986;2023-02-26T06:34:28;9.07;;;2.23;;
5587;SDS011;2816;49.778;9.986;2023-02-26T06:36:56;7.07;;;2.40;;
5587;SDS011;2816;49.778;9.986;2023-02-26T06:39:24;3.63;;;1.97;;
5587;SDS011;2816;49.778;9.986;2023-02-26T06:41:51;2.93;;;1.90;;
5587;SDS011;2816;49.778;9.986;2023-02-26T06:44:17;8.53;;;2.37;;
5587;SDS011;2816;49.778;9.986;2023-02-26T06:46:44;7.63;;;2.70;;
5587;SDS011;2816;49.778;9.986;2023-02-26T06:49:11;9.17;;;2.87;;
5587;SDS011;2816;49.778;9.986;2023-02-26T06:51:38;11.47;;;2.80;;
5587;SDS011;2816;49.778;9.986;2023-02-26T06:54:06;4.90;;;1.60;;
5587;SDS011;2816;49.778;9.986;2023-02-26T06:56:33;10.60;;;3.13;;
5587;SDS011;2816;49.778;9.986;2023-02-26T06:59:00;8.83;;;2.67;;
5587;SDS011;2816;49.778;9.986;2023-02-26T07:01:27;5.23;;;2.13;;
5587;SDS011;2816;49.778;9.986;2023-02-26T07:03:56;3.30;;;1.67;;
5587;SDS011;2816;49.778;9.986;2023-02-26T07:06:23;5.07;;;1.90;;
5587;SDS011;2816;49.778;9.986;2023-02-26T07:08:50;1.40;;;1.30;;
5587;SDS011;2816;49.778;9.986;2023-02-26T07:11:18;4.67;;;1.77;;
5587;SDS011;2816;49.778;9.986;2023-02-26T07:13:45;3.97;;;1.60;;
5587;SDS011;2816;49.778;9.986;2023-02-26T07:16:11;2.40;;;1.87;;
5587;SDS011;2816;49.778;9.986;2023-02-26T07:18:38;2.33;;;1.87;;
5587;SDS011;2816;49.778;9.986;2023-02-26T07:21:05;3.53;;;1.67;;
5587;SDS011;2816;49.778;9.986;2023-02-26T07:23:32;2.40;;;1.60;;
5587;SDS011;2816;49.778;9.986;2023-02-26T07:25:59;3.47;;;1.40;;
5587;SDS011;2816;49.778;9.986;2023-02-26T07:28:28;2.90;;;1.70;;
5587;SDS011;2816;49.778;9.986;2023-02-26T07:30:55;4.70;;;1.57;;
5587;SDS011;2816;49.778;9.986;2023-02-26T07:33:23;5.10;;;1.97;;
5587;SDS011;2816;49.778;9.986;2023-02-26T07:35:50;2.93;;;1.73;;
5587;SDS011;2816;49.778;9.986;2023-02-26T07:38:17;3.60;;;1.30;;
5587;SDS011;2816;49.778;9.986;2023-02-26T07:40:44;3.83;;;1.30;;
5587;SDS011;2816;49.778;9.986;2023-02-26T07:43:11;3.83;;;1.70;;
5587;SDS011;2816;49.778;9.986;2023-02-26T07:45:39;2.83;;;1.27;;
5587;SDS011;2816;49.778;9.986;2023-02-26T07:48:06;3.30;;;1.67;;
5587;SDS011;2816;49.778;9.986;2023-02-26T07:50:33;5.03;;;1.53;;
5587;SDS011;2816;49.778;9.986;2023-02-26T07:53:00;3.70;;;1.53;;
5587;SDS011;2816;49.778;9.986;2023-02-26T07:55:27;1.90;;;1.40;;
5587;SDS011;2816;49.778;9.986;2023-02-26T07:57:54;1.37;;;1.30;;
5587;SDS011;2816;49.778;9.986;2023-02-26T08:00:21;1.90;;;1.57;;
5587;SDS011;2816;49.778;9.986;2023-02-26T08:02:49;1.73;;;1.40;;
5587;SDS011;2816;49.778;9.986;2023-02-26T08:05:16;2.20;;;1.40;;
5587;SDS011;2816;49.778;9.986;2023-02-26T08:07:43;1.13;;;1.00;;
5587;SDS011;2816;49.778;9.986;2023-02-26T08:10:10;2.60;;;1.87;;
5587;SDS011;2816;49.778;9.986;2023-02-26T08:12:37;5.00;;;1.97;;
5587;SDS011;2816;49.778;9.986;2023-02-26T08:15:05;3.33;;;1.50;;
5587;SDS011;2816;49.778;9.986;2023-02-26T08:17:32;1.67;;;1.37;;
5587;SDS011;2816;49.778;9.986;2023-02-26T08:20:01;1.83;;;1.70;;
5587;SDS011;2816;49.778;9.986;2023-02-26T08:22:29;2.97;;;1.63;;
5587;SDS011;2816;49.778;9.986;2023-02-26T08:24:56;1.67;;;1.57;;
5587;SDS011;2816;49.778;9.986;2023-02-26T08:27:23;3.23;;;1.80;;
5587;SDS011;2816;49.778;9.986;2023-02-26T08:29:50;1.37;;;1.27;;
5587;SDS011;2816;49.778;9.986;2023-02-26T08:32:17;4.43;;;1.67;;
5587;SDS011;2816;49.778;9.986;2023-02-26T08:34:46;2.00;;;1.60;;
5587;SDS011;2816;49.778;9.986;2023-02-26T08:37:15;1.60;;;1.50;;
5587;SDS011;2816;49.778;9.986;2023-02-26T08:39:42;4.40;;;2.77;;
5587;SDS011;2816;49.778;9.986;2023-02-26T08:42:09;5.00;;;1.37;;
5587;SDS011;2816;49.778;9.986;2023-02-26T08:44:36;1.50;;;1.40;;
5587;SDS011;2816;49.778;9.986;2023-02-26T08:47:03;1.30;;;1.20;;
5587;SDS011;2816;49.778;9.986;2023-02-26T08:49:30;2.60;;;1.43;;
5587;SDS011;2816;49.778;9.986;2023-02-26T08:51:57;2.60;;;2.00;;
5587;SDS011;2816;49.778;9.986;2023-02-26T08:54:25;3.33;;;1.43;;
5587;SDS011;2816;49.778;9.986;2023-02-26T08:56:52;1.83;;;1.40;;
5587;SDS011;2816;49.778;9.986;2023-02-26T08:59:21;1.83;;;1.47;;
5587;SDS011;2816;49.778;9.986;2023-02-26T09:01:48;10.80;;;2.67;;
5587;SDS011;2816;49.778;9.986;2023-02-26T09:04:16;1.67;;;1.27;;
5587;SDS011;2816;49.778;9.986;2023-02-26T09:06:43;5.03;;;2.17;;
5587;SDS011;2816;49.778;9.986;2023-02-26T09:09:10;2.30;;;1.43;;
5587;SDS011;2816;49.778;9.986;2023-02-26T09:11:38;11.93;;;2.10;;
5587;SDS011;2816;49.778;9.986;2023-02-26T09:14:05;9.83;;;1.70;;
5587;SDS011;2816;49.778;9.986;2023-02-26T09:16:32;7.27;;;1.27;;
5587;SDS011;2816;49.778;9.986;2023-02-26T09:19:01;48.03;;;4.93;;
5587;SDS011;2816;49.778;9.986;2023-02-26T09:21:28;3.90;;;2.00;;
5587;SDS011;2816;49.778;9.986;2023-02-26T09:23:55;4.87;;;1.73;;
5587;SDS011;2816;49.778;9.986;2023-02-26T09:26:22;3.47;;;2.07;;
5587;SDS011;2816;49.778;9.986;2023-02-26T09:28:50;1.63;;;1.37;;
5587;SDS011;2816;49.778;9.986;2023-02-26T09:31:17;1.83;;;1.60;;
5587;SDS011;2816;49.778;9.986;2023-02-26T09:33:44;4.07;;;1.50;;
5587;SDS011;2816;49.778;9.986;2023-02-26T09:36:11;1.97;;;1.87;;
5587;SDS011;2816;49.778;9.986;2023-02-26T09:38:38;20.73;;;4.27;;
5587;SDS011;2816;49.778;9.986;2023-02-26T09:41:06;20.30;;;2.10;;
5587;SDS011;2816;49.778;9.986;2023-02-26T09:44:03;2.17;;;1.43;;
5587;SDS011;2816;49.778;9.986;2023-02-26T09:46:41;1.50;;;1.40;;
5587;SDS011;2816;49.778;9.986;2023-02-26T09:49:17;8.13;;;1.93;;
5587;SDS011;2816;49.778;9.986;2023-02-26T09:51:49;5.00;;;1.53;;
5587;SDS011;2816;49.778;9.986;2023-02-26T09:54:23;2.30;;;1.43;;
5587;SDS011;2816;49.778;9.986;2023-02-26T09:56:52;3.27;;;0.93;;
5587;SDS011;2816;49.778;9.986;2023-02-26T09:59:25;1.63;;;1.53;;
5587;SDS011;2816;49.778;9.986;2023-02-26T10:01:56;1.10;;;1.10;;
5587;SDS011;2816;49.778;9.986;2023-02-26T10:04:32;1.20;;;1.10;;
5587;SDS011;2816;49.778;9.986;2023-02-26T10:07:14;2.77;;;1.63;;
5587;SDS011;2816;49.778;9.986;2023-02-26T10:09:55;4.47;;;2.00;;
5587;SDS011;2816;49.778;9.986;2023-02-26T10:12:28;3.87;;;2.10;;
5587;SDS011;2816;49.778;9.986;2023-02-26T10:15:00;2.90;;;1.33;;
5587;SDS011;2816;49.778;9.986;2023-02-26T10:17:32;1.90;;;1.30;;
5587;SDS011;2816;49.778;9.986;2023-02-26T10:20:07;1.93;;;1.20;;
5587;SDS011;2816;49.778;9.986;2023-02-26T10:22:40;3.27;;;1.60;;
5587;SDS011;2816;49.778;9.986;2023-02-26T10:25:12;1.40;;;0.93;;
5587;SDS011;2816;49.778;9.986;2023-02-26T10:27:47;1.40;;;1.03;;
5587;SDS011;2816;49.778;9.986;2023-02-26T10:30:24;1.00;;;0.90;;
5587;SDS011;2816;49.778;9.986;2023-02-26T10:32:59;1.60;;;1.10;;
5587;SDS011;2816;49.778;9.986;2023-02-26T10:35:34;2.07;;;1.60;;
5587;SDS011;2816;49.778;9.986;2023-02-26T10:38:08;1.47;;;1.30;;
5587;SDS011;2816;49.778;9.986;2023-02-26T10:40:40;3.70;;;2.17;;
5587;SDS011;2816;49.778;9.986;2023-02-26T10:43:14;4.27;;;2.60;;
5587;SDS011;2816;49.778;9.986;2023-02-26T10:45:49;4.77;;;2.30;;
5587;SDS011;2816;49.778;9.986;2023-02-26T10:48:26;1.33;;;1.23;;
5587;SDS011;2816;49.778;9.986;2023-02-26T10:51:11;1.40;;;1.10;;
5587;SDS011;2816;49.778;9.986;2023-02-26T10:53:41;4.63;;;1.60;;
5587;SDS011;2816;49.778;9.986;2023-02-26T10:56:12;1.43;;;1.23;;
5587;SDS011;2816;49.778;9.986;2023-02-26T10:58:42;1.00;;;1.00;;
5587;SDS011;2816;49.778;9.986;2023-02-26T11:01:12;1.40;;;1.03;;
5587;SDS011;2816;49.778;9.986;2023-02-26T11:03:42;2.20;;;1.37;;
5587;SDS011;2816;49.778;9.986;2023-02-26T11:06:14;2.03;;;1.40;;
5587;SDS011;2816;49.778;9.986;2023-02-26T11:08:46;1.30;;;1.20;;
5587;SDS011;2816;49.778;9.986;2023-02-26T11:14:02;1.40;;;1.30;;
5587;SDS011;2816;49.778;9.986;2023-02-26T11:16:30;2.00;;;1.20;;
5587;SDS011;2816;49.778;9.986;2023-02-26T11:18:58;1.10;;;1.00;;
5587;SDS011;2816;49.778;9.986;2023-02-26T11:21:27;3.50;;;1.17;;
5587;SDS011;2816;49.778;9.986;2023-02-26T11:23:57;0.90;;;0.90;;
5587;SDS011;2816;49.778;9.986;2023-02-26T11:26:30;1.00;;;1.00;;
5587;SDS011;2816;49.778;9.986;2023-02-26T11:29:00;1.57;;;1.20;;
5587;SDS011;2816;49.778;9.986;2023-02-26T11:31:27;1.17;;;1.17;;
5587;SDS011;2816;49.778;9.986;2023-02-26T11:33:59;0.90;;;0.90;;
5587;SDS011;2816;49.778;9.986;2023-02-26T11:36:29;0.93;;;0.93;;
5587;SDS011;2816;49.778;9.986;2023-02-26T11:39:00;1.00;;;0.90;;
5587;SDS011;2816;49.778;9.986;2023-02-26T11:41:30;0.83;;;0.83;;
5587;SDS011;2816;49.778;9.986;2023-02-26T11:44:04;2.03;;;1.20;;
5587;SDS011;2816;49.778;9.986;2023-02-26T11:46:35;1.50;;;1.00;;
5587;SDS011;2816;49.778;9.986;2023-02-26T11:49:08;2.33;;;0.93;;
5587;SDS011;2816;49.778;9.986;2023-02-26T11:51:36;0.93;;;0.93;;
5587;SDS011;2816;49.778;9.986;2023-02-26T11:54:18;1.20;;;1.10;;
5587;SDS011;2816;49.778;9.986;2023-02-26T11:56:47;0.80;;;0.80;;
5587;SDS011;2816;49.778;9.986;2023-02-26T11:59:16;1.00;;;1.00;;
5587;SDS011;2816;49.778;9.986;2023-02-26T12:01:45;0.73;;;0.70;;
5587;SDS011;2816;49.778;9.986;2023-02-26T12:04:17;1.00;;;0.90;;
5587;SDS011;2816;49.778;9.986;2023-02-26T12:06:45;1.77;;;1.17;;
5587;SDS011;2816;49.778;9.986;2023-02-26T12:09:13;0.90;;;0.90;;
5587;SDS011;2816;49.778;9.986;2023-02-26T12:11:47;0.90;;;0.90;;
5587;SDS011;2816;49.778;9.986;2023-02-26T12:14:39;5.57;;;0.90;;
5587;SDS011;2816;49.778;9.986;2023-02-26T12:17:28;0.83;;;0.83;;
5587;SDS011;2816;49.778;9.986;2023-02-26T12:20:18;0.90;;;0.90;;
5587;SDS011;2816;49.778;9.986;2023-02-26T12:22:49;1.80;;;1.20;;
5587;SDS011;2816;49.778;9.986;2023-02-26T12:25:28;2.83;;;1.07;;
5587;SDS011;2816;49.778;9.986;2023-02-26T12:31:21;4.90;;;1.50;;
5587;SDS011;2816;49.778;9.986;2023-02-26T12:34:18;1.20;;;1.10;;
5587;SDS011;2816;49.778;9.986;2023-02-26T12:37:04;1.20;;;1.13;;
5587;SDS011;2816;49.778;9.986;2023-02-26T12:39:48;1.77;;;1.07;;
5587;SDS011;2816;49.778;9.986;2023-02-26T12:42:30;1.37;;;1.27;;
5587;SDS011;2816;49.778;9.986;2023-02-26T12:45:11;1.77;;;1.20;;
5587;SDS011;2816;49.778;9.986;2023-02-26T12:47:49;1.13;;;1.03;;
5587;SDS011;2816;49.778;9.986;2023-02-26T12:50:42;2.17;;;1.30;;
5587;SDS011;2816;49.778;9.986;2023-02-26T12:53:39;1.20;;;1.10;;
5587;SDS011;2816;49.778;9.986;2023-02-26T12:56:24;1.30;;;1.10;;
5587;SDS011;2816;49.778;9.986;2023-02-26T12:59:12;4.30;;;1.00;;
5587;SDS011;2816;49.778;9.986;2023-02-26T13:01:50;1.63;;;0.90;;
5587;SDS011;2816;49.778;9.986;2023-02-26T13:07:39;1.40;;;1.30;;
5587;SDS011;2816;49.778;9.986;2023-02-26T13:10:18;3.43;;;1.10;;
5587;SDS011;2816;49.778;9.986;2023-02-26T13:12:54;2.33;;;1.20;;
5587;SDS011;2816;49.778;9.986;2023-02-26T13:15:47;11.30;;;1.47;;
5587;SDS011;2816;49.778;9.986;2023-02-26T13:18:25;1.33;;;1.00;;
5587;SDS011;2816;49.778;9.986;2023-02-26T13:21:01;1.10;;;1.00;;
5587;SDS011;2816;49.778;9.986;2023-02-26T13:23:32;1.00;;;0.90;;
5587;SDS011;2816;49.778;9.986;2023-02-26T13:26:05;0.93;;;0.93;;
5587;SDS011;2816;49.778;9.986;2023-02-26T13:28:38;1.20;;;0.83;;
5587;SDS011;2816;49.778;9.986;2023-02-26T13:31:08;4.50;;;1.20;;
5587;SDS011;2816;49.778;9.986;2023-02-26T13:33:38;1.07;;;0.97;;
5587;SDS011;2816;49.778;9.986;2023-02-26T13:36:06;0.97;;;0.97;;
5587;SDS011;2816;49.778;9.986;2023-02-26T13:38:37;1.17;;;1.07;;
5587;SDS011;2816;49.778;9.986;2023-02-26T13:41:15;1.10;;;1.00;;
5587;SDS011;2816;49.778;9.986;2023-02-26T13:43:51;2.27;;;1.00;;
5587;SDS011;2816;49.778;9.986;2023-02-26T13:46:41;0.90;;;0.90;;
5587;SDS011;2816;49.778;9.986;2023-02-26T13:49:17;1.17;;;1.07;;
5587;SDS011;2816;49.778;9.986;2023-02-26T13:51:51;1.23;;;1.13;;
5587;SDS011;2816;49.778;9.986;2023-02-26T13:54:32;1.80;;;1.00;;
5587;SDS011;2816;49.778;9.986;2023-02-26T13:57:09;2.13;;;1.10;;
5587;SDS011;2816;49.778;9.986;2023-02-26T13:59:59;1.00;;;1.00;;
5587;SDS011;2816;49.778;9.986;2023-02-26T14:02:43;1.00;;;1.00;;
5587;SDS011;2816;49.778;9.986;2023-02-26T14:14:28;1.20;;;0.90;;
5587;SDS011;2816;49.778;9.986;2023-02-26T14:20:20;0.90;;;0.80;;
5587;SDS011;2816;49.778;9.986;2023-02-26T14:22:51;1.47;;;1.10;;
5587;SDS011;2816;49.778;9.986;2023-02-26T14:25:38;1.33;;;1.23;;
5587;SDS011;2816;49.778;9.986;2023-02-26T14:28:28;1.77;;;1.10;;
5587;SDS011;2816;49.778;9.986;2023-02-26T14:31:12;1.87;;;1.17;;
5587;SDS011;2816;49.778;9.986;2023-02-26T14:33:43;1.30;;;1.20;;
5587;SDS011;2816;49.778;9.986;2023-02-26T14:36:14;1.27;;;0.90;;
5587;SDS011;2816;49.778;9.986;2023-02-26T14:38:43;1.83;;;1.10;;
5587;SDS011;2816;49.778;9.986;2023-02-26T14:41:13;8.20;;;1.17;;
5587;SDS011;2816;49.778;9.986;2023-02-26T14:43:52;1.60;;;1.13;;
5587;SDS011;2816;49.778;9.986;2023-02-26T14:46:26;1.10;;;1.00;;
5587;SDS011;2816;49.778;9.986;2023-02-26T14:48:56;2.43;;;1.10;;
5587;SDS011;2816;49.778;9.986;2023-02-26T14:51:26;1.30;;;1.07;;
5587;SDS011;2816;49.778;9.986;2023-02-26T14:54:21;2.43;;;1.20;;
5587;SDS011;2816;49.778;9.986;2023-02-26T14:57:02;1.67;;;1.00;;
5587;SDS011;2816;49.778;9.986;2023-02-26T14:59:39;0.90;;;0.90;;
5587;SDS011;2816;49.778;9.986;2023-02-26T15:02:27;1.23;;;0.90;;
5587;SDS011;2816;49.778;9.986;2023-02-26T15:05:04;1.53;;;1.00;;
5587;SDS011;2816;49.778;9.986;2023-02-26T15:08:00;0.90;;;0.90;;
5587;SDS011;2816;49.778;9.986;2023-02-26T15:10:40;1.27;;;0.87;;
5587;SDS011;2816;49.778;9.986;2023-02-26T15:13:24;0.80;;;0.80;;
5587;SDS011;2816;49.778;9.986;2023-02-26T15:16:03;2.83;;;0.80;;
5587;SDS011;2816;49.778;9.986;2023-02-26T15:21:46;1.20;;;1.10;;
5587;SDS011;2816;49.778;9.986;2023-02-26T15:24:24;1.07;;;0.87;;
5587;SDS011;2816;49.778;9.986;2023-02-26T15:26:56;0.90;;;0.90;;
5587;SDS011;2816;49.778;9.986;2023-02-26T15:29:27;1.10;;;0.83;;
5587;SDS011;2816;49.778;9.986;2023-02-26T15:31:57;1.63;;;0.90;;
5587;SDS011;2816;49.778;9.986;2023-02-26T15:34:28;0.70;;;0.70;;
5587;SDS011;2816;49.778;9.986;2023-02-26T15:36:57;2.67;;;0.83;;
5587;SDS011;2816;49.778;9.986;2023-02-26T15:39:24;1.03;;;1.00;;
5587;SDS011;2816;49.778;9.986;2023-02-26T15:41:52;0.80;;;0.73;;
5587;SDS011;2816;49.778;9.986;2023-02-26T15:44:22;7.40;;;2.17;;
5587;SDS011;2816;49.778;9.986;2023-02-26T15:46:53;0.87;;;0.70;;
5587;SDS011;2816;49.778;9.986;2023-02-26T15:49:24;0.60;;;0.60;;
5587;SDS011;2816;49.778;9.986;2023-02-26T15:51:56;3.07;;;1.10;;
5587;SDS011;2816;49.778;9.986;2023-02-26T15:54:26;1.63;;;0.77;;
5587;SDS011;2816;49.778;9.986;2023-02-26T15:56:58;0.77;;;0.77;;
5587;SDS011;2816;49.778;9.986;2023-02-26T15:59:27;1.10;;;0.80;;
5587;SDS011;2816;49.778;9.986;2023-02-26T16:01:57;2.20;;;0.90;;
5587;SDS011;2816;49.778;9.986;2023-02-26T16:04:27;0.90;;;0.90;;
5587;SDS011;2816;49.778;9.986;2023-02-26T16:06:56;0.77;;;0.77;;
5587;SDS011;2816;49.778;9.986;2023-02-26T16:09:24;1.80;;;0.70;;
5587;SDS011;2816;49.778;9.986;2023-02-26T16:11:54;1.10;;;0.97;;